Time;durP1;ratioP1;P1;durP2;ratioP2;P2;SDS_P1;SDS_P2;PMS_P1;PMS_P2;Temp;Humidity;BMP_temperature;BMP_pressure;BME280_temperature;BME280_humidity;BME280_pressure;Samples;Min_cycle;Max_cycle;Signal;HPM_P1;HPM_P2
2022/12/16 00:00:25;;;;;;;36.47;20.83;;;-2.10;99.90;;;;;;5018290;28;20226;-78
2022/12/16 00:02:53;;;;;;;36.90;21.10;;;-2.10;99.90;;;;;;5029074;28;20289;-79
2022/12/16 00:05:20;;;;;;;34.07;20.13;;;-2.10;99.90;;;;;;5025386;28;20220;-78
2022/12/16 00:07:47;;;;;;;32.20;19.43;;;-2.10;99.90;;;;;;5029078;28;20298;-78
2022/12/16 00:10:15;;;;;;;30.07;19.60;;;-2.10;99.90;;;;;;5022272;28;20299;-79
2022/12/16 00:12:41;;;;;;;33.00;20.53;;;-2.10;99.90;;;;;;5032010;28;20232;-79
2022/12/16 00:15:09;;;;;;;32.07;19.17;;;-2.00;99.90;;;;;;5023951;28;20224;-80
2022/12/16 00:17:38;;;;;;;31.27;18.97;;;-2.10;99.90;;;;;;5015468;28;20891;-78
2022/12/16 00:20:06;;;;;;;32.00;19.07;;;-2.00;99.90;;;;;;5025761;28;20253;-78
2022/12/16 00:22:32;;;;;;;35.03;20.03;;;-2.00;99.90;;;;;;5024577;28;20245;-79
2022/12/16 00:24:59;;;;;;;29.57;19.27;;;-2.00;99.90;;;;;;5023061;28;20235;-79
2022/12/16 00:27:26;;;;;;;30.60;19.50;;;-2.00;99.90;;;;;;5020370;28;20234;-79
2022/12/16 00:29:52;;;;;;;26.60;18.53;;;-2.00;99.90;;;;;;5032170;28;20242;-80
2022/12/16 00:32:19;;;;;;;32.77;19.90;;;-2.00;99.90;;;;;;5022451;28;20767;-79
2022/12/16 00:34:47;;;;;;;33.27;20.37;;;-1.90;99.90;;;;;;5023086;28;20762;-80
2022/12/16 00:37:14;;;;;;;28.43;18.93;;;-1.90;99.90;;;;;;5015379;28;20719;-79
2022/12/16 00:39:41;;;;;;;26.67;17.93;;;-1.90;99.90;;;;;;5031164;28;20320;-80
2022/12/16 00:42:08;;;;;;;27.87;18.30;;;-1.90;99.90;;;;;;5014499;28;20755;-79
2022/12/16 00:44:35;;;;;;;25.57;19.17;;;-1.80;99.90;;;;;;5019976;28;20926;-79
2022/12/16 00:47:01;;;;;;;27.37;19.00;;;-1.80;99.90;;;;;;5023007;28;20241;-78
2022/12/16 00:49:29;;;;;;;30.50;18.77;;;-1.80;99.90;;;;;;5019301;28;20233;-79
2022/12/16 00:51:57;;;;;;;33.53;19.97;;;-1.80;99.90;;;;;;5015269;28;20228;-78
2022/12/16 00:54:24;;;;;;;26.37;18.57;;;-1.70;99.90;;;;;;5027923;28;20326;-79
2022/12/16 00:56:50;;;;;;;26.77;18.30;;;-1.70;99.90;;;;;;5025888;28;20292;-79
2022/12/16 00:59:17;;;;;;;28.20;18.93;;;-1.70;99.90;;;;;;5020961;28;20223;-80
2022/12/16 01:01:44;;;;;;;30.20;17.30;;;-1.70;99.90;;;;;;5022002;28;20225;-79
2022/12/16 01:04:10;;;;;;;27.20;18.47;;;-1.70;99.90;;;;;;5016138;28;20334;-79
2022/12/16 01:06:37;;;;;;;27.20;18.50;;;-1.60;99.90;;;;;;5030066;28;20223;-78
2022/12/16 01:09:05;;;;;;;25.77;17.57;;;-1.60;99.90;;;;;;5023307;28;20260;-78
2022/12/16 01:11:32;;;;;;;26.97;18.60;;;-1.60;99.90;;;;;;5024050;28;20259;-78
2022/12/16 01:13:59;;;;;;;30.17;18.97;;;-1.60;99.90;;;;;;5020846;28;20239;-79
2022/12/16 01:16:25;;;;;;;26.07;17.60;;;-1.60;99.90;;;;;;5030541;28;20915;-79
2022/12/16 01:18:54;;;;;;;31.13;19.40;;;-1.60;99.90;;;;;;5024633;28;20325;-79
2022/12/16 01:21:21;;;;;;;28.40;18.50;;;-1.60;99.90;;;;;;5021869;28;20227;-79
2022/12/16 01:23:48;;;;;;;27.47;18.27;;;-1.60;99.90;;;;;;5026502;28;20223;-79
2022/12/16 01:26:18;;;;;;;27.10;18.97;;;-1.60;99.90;;;;;;5032552;28;20221;-81
2022/12/16 01:28:48;;;;;;;37.50;19.57;;;-1.60;99.90;;;;;;5020360;28;20222;-79
2022/12/16 01:31:17;;;;;;;27.73;18.63;;;-1.60;99.90;;;;;;5021543;28;20270;-79
2022/12/16 01:33:44;;;;;;;27.53;18.43;;;-1.60;99.90;;;;;;5020031;28;20295;-79
2022/12/16 01:36:11;;;;;;;27.30;18.50;;;-1.60;99.90;;;;;;5032941;28;20265;-80
2022/12/16 01:38:38;;;;;;;28.20;19.00;;;-1.60;99.90;;;;;;5028799;28;20242;-79
2022/12/16 01:41:05;;;;;;;26.63;18.40;;;-1.60;99.90;;;;;;5035064;28;20299;-79
2022/12/16 01:43:37;;;;;;;29.07;18.50;;;-1.60;99.90;;;;;;5018606;28;20231;-80
2022/12/16 01:46:07;;;;;;;30.00;18.53;;;-1.60;99.90;;;;;;5029103;28;20226;-79
2022/12/16 01:48:42;;;;;;;29.03;18.73;;;-1.60;99.90;;;;;;5021699;28;20246;-79
2022/12/16 01:51:13;;;;;;;31.43;18.47;;;-1.60;99.90;;;;;;5032432;28;20229;-78
2022/12/16 01:53:42;;;;;;;29.80;18.87;;;-1.60;99.90;;;;;;5009620;28;20236;-79
2022/12/16 01:56:12;;;;;;;26.13;17.30;;;-1.60;99.90;;;;;;5020405;28;20229;-79
2022/12/16 01:58:42;;;;;;;28.33;18.33;;;-1.60;99.90;;;;;;5037051;28;20598;-78
2022/12/16 02:01:08;;;;;;;29.17;18.87;;;-1.60;99.90;;;;;;5018418;28;20254;-79
2022/12/16 02:03:36;;;;;;;30.23;20.50;;;-1.70;99.90;;;;;;5017020;28;20226;-78
2022/12/16 02:06:05;;;;;;;27.83;18.10;;;-1.70;99.90;;;;;;5010919;28;20229;-78
2022/12/16 02:08:32;;;;;;;28.33;18.27;;;-1.70;99.90;;;;;;5030401;28;20241;-79
2022/12/16 02:11:21;;;;;;;30.40;19.23;;;-1.70;99.90;;;;;;5029079;28;20251;-78
2022/12/16 02:14:05;;;;;;;30.47;18.53;;;-1.80;99.90;;;;;;5028525;28;20219;-80
2022/12/16 02:16:39;;;;;;;32.07;19.43;;;-1.70;99.90;;;;;;5019416;28;20222;-80
2022/12/16 02:19:23;;;;;;;29.63;19.03;;;-1.80;99.90;;;;;;5025731;28;20226;-79
2022/12/16 02:22:00;;;;;;;28.67;17.90;;;-1.80;99.90;;;;;;5028692;28;20680;-79
2022/12/16 02:24:52;;;;;;;27.60;18.07;;;-1.80;99.90;;;;;;5011685;28;20231;-79
2022/12/16 02:27:45;;;;;;;30.60;17.53;;;-1.80;99.90;;;;;;5021140;28;20223;-78
2022/12/16 02:30:44;;;;;;;24.80;16.53;;;-1.90;99.90;;;;;;5020609;28;21181;-78
2022/12/16 02:33:32;;;;;;;26.00;17.60;;;-1.90;99.90;;;;;;5036242;28;20223;-79
2022/12/16 02:36:06;;;;;;;28.63;19.37;;;-1.90;99.90;;;;;;5018351;28;20892;-79
2022/12/16 02:38:39;;;;;;;26.57;16.87;;;-1.90;99.90;;;;;;5023668;28;20226;-79
2022/12/16 02:41:10;;;;;;;28.13;18.33;;;-1.90;99.90;;;;;;5025435;28;20743;-79
2022/12/16 02:43:52;;;;;;;31.30;19.47;;;-1.90;99.90;;;;;;5027995;28;20232;-79
2022/12/16 02:46:22;;;;;;;29.00;18.50;;;-1.90;99.90;;;;;;5021968;28;20215;-78
2022/12/16 02:48:50;;;;;;;30.03;18.50;;;-2.00;99.90;;;;;;5021431;28;20223;-78
2022/12/16 02:51:17;;;;;;;28.73;20.03;;;-2.00;99.90;;;;;;5024008;28;20225;-78
2022/12/16 02:53:46;;;;;;;33.57;19.13;;;-2.10;99.90;;;;;;5019610;28;20662;-78
2022/12/16 02:56:24;;;;;;;29.43;19.07;;;-2.10;99.90;;;;;;5021561;28;20220;-78
2022/12/16 02:59:02;;;;;;;29.43;19.13;;;-2.20;99.90;;;;;;5027649;28;20234;-78
2022/12/16 03:01:35;;;;;;;29.40;18.73;;;-2.20;99.90;;;;;;5032224;28;20232;-79
2022/12/16 03:04:09;;;;;;;28.90;18.30;;;-2.40;99.90;;;;;;5030662;28;20220;-78
2022/12/16 03:06:38;;;;;;;27.87;18.57;;;-2.40;99.90;;;;;;5015617;28;20280;-78
2022/12/16 03:09:09;;;;;;;34.00;19.07;;;-2.40;99.90;;;;;;5019734;28;20335;-78
2022/12/16 03:11:38;;;;;;;27.13;18.37;;;-2.50;99.90;;;;;;5026044;28;20233;-78
2022/12/16 03:14:07;;;;;;;25.33;17.97;;;-2.60;99.90;;;;;;5021541;28;20743;-78
2022/12/16 03:16:34;;;;;;;30.13;18.97;;;-2.70;99.90;;;;;;5022882;28;20227;-78
2022/12/16 03:19:08;;;;;;;29.00;18.00;;;-2.80;99.90;;;;;;5018866;28;20864;-77
2022/12/16 03:21:38;;;;;;;27.57;18.67;;;-2.90;99.90;;;;;;5012049;28;20216;-77
2022/12/16 03:24:09;;;;;;;27.67;18.03;;;-2.90;99.90;;;;;;5023963;28;20281;-77
2022/12/16 03:26:43;;;;;;;30.00;17.53;;;-3.00;99.90;;;;;;5030613;28;20216;-77
2022/12/16 03:29:15;;;;;;;48.40;19.50;;;-3.10;99.90;;;;;;5021311;28;20238;-77
2022/12/16 03:31:48;;;;;;;29.63;18.17;;;-3.20;99.90;;;;;;5026843;28;20268;-77
2022/12/16 03:34:25;;;;;;;28.27;18.10;;;-3.30;99.90;;;;;;5033348;28;20585;-77
2022/12/16 03:36:57;;;;;;;32.53;21.20;;;-3.30;99.90;;;;;;5038516;28;20236;-78
2022/12/16 03:39:26;;;;;;;29.50;19.47;;;-3.40;99.90;;;;;;5026329;28;20268;-79
2022/12/16 03:41:54;;;;;;;31.40;20.33;;;-3.50;99.90;;;;;;5029371;28;20936;-77
2022/12/16 03:44:22;;;;;;;32.67;19.43;;;-3.60;99.90;;;;;;5036281;28;20677;-78
2022/12/16 03:46:49;;;;;;;28.73;18.77;;;-3.60;99.90;;;;;;5024199;28;20655;-78
2022/12/16 03:49:17;;;;;;;30.50;18.60;;;-3.70;99.90;;;;;;5027149;28;20226;-78
2022/12/16 03:51:44;;;;;;;30.00;19.93;;;-3.80;99.90;;;;;;5025212;28;20234;-77
2022/12/16 03:54:11;;;;;;;31.87;19.67;;;-3.80;99.90;;;;;;5013131;28;20226;-78
2022/12/16 03:56:38;;;;;;;29.93;18.83;;;-3.90;99.90;;;;;;5030737;28;20236;-78
2022/12/16 03:59:04;;;;;;;32.30;18.63;;;-3.90;99.90;;;;;;5025098;28;20283;-77
2022/12/16 04:01:31;;;;;;;31.00;18.97;;;-4.00;99.90;;;;;;5030404;28;20682;-77
2022/12/16 04:03:58;;;;;;;34.43;19.70;;;-4.10;99.90;;;;;;5028599;28;20225;-78
2022/12/16 04:06:26;;;;;;;31.97;19.40;;;-4.10;99.90;;;;;;5022711;28;20247;-77
2022/12/16 04:08:52;;;;;;;29.30;18.97;;;-4.10;99.90;;;;;;5022918;28;20244;-80
2022/12/16 04:25:12;;;;;;;39.00;20.77;;;-4.50;99.90;;;;;;5033248;28;20236;-84
2022/12/16 04:27:45;;;;;;;36.60;23.30;;;-4.50;99.90;;;;;;5024136;28;20226;-81
2022/12/16 04:30:19;;;;;;;33.87;21.67;;;-4.50;99.90;;;;;;5024148;28;20243;-79
